Time;durP1;ratioP1;P1;durP2;ratioP2;P2;SDS_P1;SDS_P2;PMS_P1;PMS_P2;Temp;Humidity;BMP_temperature;BMP_pressure;BME280_temperature;BME280_humidity;BME280_pressure;Samples;Min_cycle;Max_cycle;Signal;HPM_P1;HPM_P2
2023/12/05 00:02:03;;;;;;;14.20;9.88;;;-4.10;99.90;;;;;;4938342;29;20227;-83
2023/12/05 00:04:31;;;;;;;6.85;5.97;;;-4.20;99.90;;;;;;4923276;29;20197;-83
2023/12/05 00:06:58;;;;;;;6.03;5.53;;;-4.20;99.90;;;;;;4936651;29;20208;-81
2023/12/05 00:09:25;;;;;;;10.68;9.65;;;-4.30;99.90;;;;;;4938376;29;20281;-81
2023/12/05 00:11:52;;;;;;;15.30;8.15;;;-4.30;99.90;;;;;;4931518;29;20208;-81
2023/12/05 00:14:20;;;;;;;13.88;6.68;;;-4.30;99.90;;;;;;4941229;29;20429;-83
2023/12/05 00:16:47;;;;;;;11.65;8.90;;;-4.40;99.90;;;;;;4945508;29;20216;-83
2023/12/05 00:19:15;;;;;;;13.40;7.95;;;-4.50;99.90;;;;;;4937299;29;20265;-82
2023/12/05 00:21:42;;;;;;;15.13;6.78;;;-4.50;99.90;;;;;;4940118;29;20206;-81
2023/12/05 00:24:09;;;;;;;10.73;6.63;;;-4.50;99.90;;;;;;4947553;29;20314;-80
2023/12/05 00:26:36;;;;;;;8.07;7.18;;;-4.50;99.90;;;;;;4929397;29;20205;-83
2023/12/05 00:29:05;;;;;;;11.65;8.68;;;-4.50;99.90;;;;;;4942603;29;20200;-81
2023/12/05 00:31:33;;;;;;;10.15;7.72;;;-4.50;99.90;;;;;;4926370;29;20590;-78
2023/12/05 00:34:00;;;;;;;12.05;8.48;;;-4.50;99.90;;;;;;4933777;29;20204;-84
2023/12/05 00:36:28;;;;;;;12.13;8.20;;;-4.60;99.90;;;;;;4933699;29;20590;-84
2023/12/05 00:38:57;;;;;;;7.32;5.90;;;-4.70;99.90;;;;;;4925511;29;20212;-81
2023/12/05 00:41:27;;;;;;;12.25;7.40;;;-4.50;99.90;;;;;;4922595;29;20245;-82
2023/12/05 00:43:54;;;;;;;10.32;8.07;;;-4.60;99.90;;;;;;4948667;29;20272;-78
2023/12/05 00:46:22;;;;;;;12.05;8.15;;;-4.60;99.90;;;;;;4941081;29;20750;-80
2023/12/05 00:48:50;;;;;;;5.97;5.38;;;-4.40;99.90;;;;;;4936489;29;20272;-81
2023/12/05 00:51:17;;;;;;;12.55;11.25;;;-4.60;99.90;;;;;;4938777;29;20244;-84
2023/12/05 00:53:48;;;;;;;10.18;8.77;;;-4.70;99.90;;;;;;4937249;29;20248;-81
2023/12/05 00:56:18;;;;;;;9.82;8.93;;;-4.80;99.90;;;;;;4935101;29;20213;-82
2023/12/05 00:58:45;;;;;;;20.67;7.22;;;-4.90;99.90;;;;;;4932513;29;20268;-87
2023/12/05 01:01:18;;;;;;;26.23;9.82;;;-5.00;99.90;;;;;;4949270;29;20236;-86
2023/12/05 01:03:47;;;;;;;10.10;6.57;;;-5.00;99.90;;;;;;4949685;29;20195;-87
2023/12/05 01:06:20;;;;;;;11.57;9.70;;;-5.00;99.90;;;;;;4932005;29;20225;-87
2023/12/05 01:08:53;;;;;;;7.70;7.03;;;-5.00;99.90;;;;;;4939591;29;20198;-87
2023/12/05 01:11:25;;;;;;;9.85;8.85;;;-5.10;99.90;;;;;;4935011;29;20221;-84
2023/12/05 01:13:54;;;;;;;8.27;7.53;;;-5.00;99.90;;;;;;4942393;29;20209;-85
2023/12/05 01:16:22;;;;;;;10.23;6.90;;;-5.10;99.90;;;;;;4944648;29;20284;-80
2023/12/05 01:18:51;;;;;;;7.70;7.03;;;-5.20;99.90;;;;;;4952254;29;20220;-84
2023/12/05 01:21:23;;;;;;;4.65;4.35;;;-5.10;99.90;;;;;;4949942;29;20240;-84
2023/12/05 01:23:52;;;;;;;5.38;4.88;;;-5.10;99.90;;;;;;4932922;29;20248;-79
2023/12/05 01:26:20;;;;;;;4.75;4.35;;;-5.10;99.90;;;;;;4925018;29;20217;-81
2023/12/05 01:28:49;;;;;;;9.63;8.85;;;-5.20;99.90;;;;;;4924175;29;20201;-83
2023/12/05 01:31:17;;;;;;;6.50;6.00;;;-5.10;99.90;;;;;;4926291;29;20260;-84
2023/12/05 01:33:44;;;;;;;4.78;4.38;;;-5.20;99.90;;;;;;4924250;29;20267;-84
2023/12/05 01:36:15;;;;;;;8.95;7.72;;;-5.20;99.90;;;;;;4934735;29;20204;-79
2023/12/05 01:38:43;;;;;;;5.95;5.55;;;-5.30;99.90;;;;;;4939574;29;20214;-82
2023/12/05 01:41:10;;;;;;;8.45;7.85;;;-5.20;99.90;;;;;;4929260;29;20243;-81
2023/12/05 01:43:40;;;;;;;7.70;7.20;;;-5.40;99.90;;;;;;4922953;29;20292;-85
2023/12/05 01:46:21;;;;;;;8.07;7.45;;;-5.40;99.90;;;;;;4933792;29;20196;-82
2023/12/05 01:48:49;;;;;;;8.15;7.55;;;-5.40;99.90;;;;;;4950382;29;20251;-84
2023/12/05 01:51:21;;;;;;;10.50;8.02;;;-5.40;99.90;;;;;;4955330;29;20220;-82
2023/12/05 01:53:48;;;;;;;7.72;6.05;;;-5.40;99.90;;;;;;4954705;29;20185;-83
2023/12/05 01:56:18;;;;;;;11.90;9.48;;;-5.40;99.90;;;;;;4944868;29;20260;-84
2023/12/05 01:58:45;;;;;;;9.93;8.30;;;-5.40;99.90;;;;;;4939996;29;20223;-86
2023/12/05 02:01:15;;;;;;;5.70;5.10;;;-5.50;99.90;;;;;;4932758;29;20232;-81
2023/12/05 02:03:45;;;;;;;7.93;7.30;;;-5.50;99.90;;;;;;4927740;29;20243;-83
2023/12/05 02:06:13;;;;;;;8.45;7.72;;;-5.50;99.90;;;;;;4928874;29;20210;-80
2023/12/05 02:08:43;;;;;;;6.22;4.97;;;-5.50;99.90;;;;;;4925299;29;20412;-83
2023/12/05 02:11:11;;;;;;;15.02;9.57;;;-5.60;99.90;;;;;;4931447;29;20601;-83
2023/12/05 02:13:39;;;;;;;6.55;5.95;;;-5.60;99.90;;;;;;4928114;29;20441;-84
2023/12/05 02:16:39;;;;;;;6.35;5.82;;;-5.60;99.90;;;;;;4936413;29;20228;-81
2023/12/05 02:19:18;;;;;;;15.65;8.88;;;-5.50;99.90;;;;;;4946740;29;20200;-85
2023/12/05 02:21:53;;;;;;;6.10;4.80;;;-5.60;99.90;;;;;;4923247;29;20228;-80
2023/12/05 02:24:40;;;;;;;5.60;5.13;;;-5.70;99.90;;;;;;4928473;29;20212;-82
2023/12/05 02:27:36;;;;;;;7.10;6.38;;;-5.60;99.90;;;;;;4934825;29;20399;-82
2023/12/05 02:30:03;;;;;;;7.93;6.45;;;-5.60;99.90;;;;;;4923731;29;20443;-82
2023/12/05 02:32:32;;;;;;;5.53;5.22;;;-5.50;99.90;;;;;;4928375;29;20241;-78
2023/12/05 02:35:00;;;;;;;5.82;5.45;;;-5.60;99.90;;;;;;4923147;29;20205;-79
2023/12/05 02:37:44;;;;;;;10.35;9.50;;;-5.50;99.90;;;;;;4935442;29;20413;-77
2023/12/05 02:40:25;;;;;;;29.02;10.73;;;-5.50;99.90;;;;;;4930461;29;20268;-82
2023/12/05 02:42:55;;;;;;;13.52;12.35;;;-5.50;99.90;;;;;;4923316;29;20288;-81
2023/12/05 02:45:27;;;;;;;7.20;6.50;;;-5.70;99.90;;;;;;4930831;29;20646;-77
2023/12/05 02:47:57;;;;;;;14.73;8.95;;;-5.60;99.90;;;;;;4932663;29;20212;-78
2023/12/05 02:50:26;;;;;;;15.98;12.05;;;-5.60;99.90;;;;;;4922523;29;20269;-78
2023/12/05 02:52:53;;;;;;;7.22;6.50;;;-5.60;99.90;;;;;;4924273;29;20545;-83
2023/12/05 02:55:20;;;;;;;17.95;9.82;;;-5.50;99.90;;;;;;4931897;29;20215;-81
2023/12/05 02:57:48;;;;;;;10.52;9.73;;;-5.50;99.90;;;;;;4932267;29;20524;-81
2023/12/05 03:00:16;;;;;;;8.93;8.07;;;-5.50;99.90;;;;;;4920569;29;20263;-80
2023/12/05 03:02:43;;;;;;;7.50;6.90;;;-5.40;99.90;;;;;;4924138;29;20209;-81
2023/12/05 03:05:13;;;;;;;10.02;7.38;;;-5.50;99.90;;;;;;4925126;29;20221;-81
2023/12/05 03:07:42;;;;;;;10.48;9.05;;;-5.50;99.90;;;;;;4930463;29;20268;-83
2023/12/05 03:10:09;;;;;;;8.57;5.68;;;-5.50;99.90;;;;;;4927162;29;20225;-76
2023/12/05 03:12:38;;;;;;;6.38;5.88;;;-5.60;99.90;;;;;;4924678;29;20218;-82
2023/12/05 03:15:06;;;;;;;7.85;7.28;;;-5.60;99.90;;;;;;4926951;29;20231;-79
2023/12/05 03:17:32;;;;;;;9.73;9.02;;;-5.50;99.90;;;;;;4927812;29;20212;-80
2023/12/05 03:20:01;;;;;;;7.45;6.97;;;-5.50;99.90;;;;;;4932784;29;20553;-78
2023/12/05 03:22:28;;;;;;;6.32;5.90;;;-5.40;99.90;;;;;;4926767;29;20550;-78
2023/12/05 03:24:55;;;;;;;9.40;8.63;;;-5.40;99.90;;;;;;4929505;29;20208;-82
2023/12/05 03:27:23;;;;;;;7.55;6.93;;;-5.40;99.90;;;;;;4931581;29;20217;-82
2023/12/05 03:29:50;;;;;;;7.07;6.60;;;-5.30;99.90;;;;;;4927135;29;20201;-81
2023/12/05 03:32:16;;;;;;;10.02;8.13;;;-5.30;99.90;;;;;;4931108;29;20445;-85
2023/12/05 03:34:47;;;;;;;7.47;6.95;;;-5.20;99.90;;;;;;4932553;29;20715;-79
2023/12/05 03:37:14;;;;;;;8.80;8.20;;;-5.10;99.90;;;;;;4931039;29;20213;-83
2023/12/05 03:39:43;;;;;;;6.90;5.03;;;-5.20;99.90;;;;;;4949297;29;20239;-80
2023/12/05 03:42:11;;;;;;;8.75;7.55;;;-5.10;99.90;;;;;;4927961;29;20236;-78
2023/12/05 03:44:38;;;;;;;7.88;7.13;;;-5.10;99.90;;;;;;4924434;29;20299;-77
2023/12/05 03:47:05;;;;;;;9.63;8.63;;;-5.20;99.90;;;;;;4924897;29;20280;-82
2023/12/05 03:49:38;;;;;;;8.18;7.00;;;-5.20;99.90;;;;;;4926116;29;20224;-80
2023/12/05 03:52:05;;;;;;;11.43;9.18;;;-5.10;99.90;;;;;;4944126;29;20180;-84
2023/12/05 03:54:35;;;;;;;10.52;9.52;;;-5.10;99.90;;;;;;4942157;29;20197;-81
2023/12/05 03:57:02;;;;;;;7.75;6.70;;;-5.10;99.90;;;;;;4940853;29;20200;-83
2023/12/05 03:59:31;;;;;;;8.82;7.95;;;-5.10;99.90;;;;;;4941378;29;20265;-76
2023/12/05 04:01:59;;;;;;;11.90;5.28;;;-5.10;99.90;;;;;;4947212;29;20294;-79
2023/12/05 04:04:26;;;;;;;6.35;5.93;;;-5.00;99.90;;;;;;4939455;29;20212;-81
2023/12/05 04:06:54;;;;;;;9.73;5.80;;;-5.00;99.90;;;;;;4936096;29;20267;-78
2023/12/05 04:09:21;;;;;;;7.72;7.22;;;-5.00;99.90;;;;;;4928603;29;20216;-79
2023/12/05 04:11:52;;;;;;;5.53;4.70;;;-5.00;99.90;;;;;;4923576;29;20235;-78
2023/12/05 04:14:19;;;;;;;18.42;5.93;;;-5.00;99.90;;;;;;4928806;29;20231;-77
2023/12/05 04:16:45;;;;;;;8.27;7.28;;;-5.00;99.90;;;;;;4934326;29;20323;-82
2023/12/05 04:19:12;;;;;;;16.75;8.07;;;-5.00;99.90;;;;;;4929042;29;20247;-76
2023/12/05 04:21:40;;;;;;;6.35;5.78;;;-5.00;99.90;;;;;;4922384;29;20591;-78
2023/12/05 04:24:07;;;;;;;10.77;7.10;;;-4.90;99.90;;;;;;4937463;29;20209;-79
2023/12/05 04:26:34;;;;;;;11.13;10.02;;;-4.90;99.90;;;;;;4938060;29;20401;-77
2023/12/05 04:29:01;;;;;;;5.20;4.63;;;-5.00;99.90;;;;;;4928029;29;20287;-79
2023/12/05 04:31:28;;;;;;;5.47;4.97;;;-5.00;99.90;;;;;;4923819;29;20213;-76
2023/12/05 04:33:56;;;;;;;50.13;9.13;;;-5.00;99.90;;;;;;4922372;29;20220;-80
2023/12/05 04:36:26;;;;;;;6.47;5.80;;;-5.00;99.90;;;;;;4928383;29;20311;-78
2023/12/05 04:38:53;;;;;;;4.20;3.97;;;-4.90;99.90;;;;;;4924092;29;20217;-79
2023/12/05 04:41:22;;;;;;;10.27;7.68;;;-4.90;99.90;;;;;;4932842;29;20237;-77
2023/12/05 04:43:50;;;;;;;6.85;6.22;;;-5.00;99.90;;;;;;4927707;29;20329;-78
2023/12/05 04:46:17;;;;;;;17.27;7.90;;;-5.00;99.90;;;;;;4922558;29;20213;-80
2023/12/05 04:48:44;;;;;;;7.75;7.25;;;-5.00;99.90;;;;;;4929281;29;20312;-80
2023/12/05 04:51:18;;;;;;;7.05;6.50;;;-5.00;99.90;;;;;;4921879;29;20252;-77
2023/12/05 04:53:45;;;;;;;5.35;4.95;;;-5.00;99.90;;;;;;4923017;29;20272;-81
2023/12/05 04:56:13;;;;;;;9.15;8.27;;;-4.90;99.90;;;;;;4938750;29;20391;-77
2023/12/05 04:58:42;;;;;;;12.65;11.38;;;-5.00;99.90;;;;;;4926750;29;20216;-81
2023/12/05 05:01:09;;;;;;;18.95;8.75;;;-5.00;99.90;;;;;;4931452;29;20240;-79
2023/12/05 05:03:37;;;;;;;10.90;6.72;;;-5.00;99.90;;;;;;4923935;29;20213;-77
2023/12/05 05:06:05;;;;;;;9.57;8.77;;;-5.00;99.90;;;;;;4922066;29;20276;-78
2023/12/05 05:08:33;;;;;;;7.70;6.82;;;-5.00;99.90;;;;;;4930151;29;20252;-79
2023/12/05 05:11:02;;;;;;;7.90;5.45;;;-5.00;99.90;;;;;;4922639;29;20220;-79
2023/12/05 05:13:30;;;;;;;5.78;5.05;;;-5.10;99.90;;;;;;4924991;29;20217;-81
2023/12/05 05:16:01;;;;;;;8.35;7.53;;;-5.00;99.90;;;;;;4922539;29;20219;-79
2023/12/05 05:18:28;;;;;;;21.63;6.90;;;-5.00;99.90;;;;;;4924016;29;20213;-79
2023/12/05 05:20:55;;;;;;;6.68;6.05;;;-5.10;99.90;;;;;;4934445;29;20259;-78
2023/12/05 05:23:24;;;;;;;8.35;7.65;;;-5.10;99.90;;;;;;4934431;29;20284;-78
2023/12/05 05:25:52;;;;;;;9.02;6.22;;;-5.10;99.90;;;;;;4926233;29;20207;-78
2023/12/05 05:28:20;;;;;;;14.45;8.45;;;-5.10;99.90;;;;;;4930861;29;20212;-78
2023/12/05 05:30:54;;;;;;;18.35;9.43;;;-5.10;99.90;;;;;;4927444;29;20716;-78
2023/12/05 05:33:23;;;;;;;7.45;6.75;;;-5.10;99.90;;;;;;4938319;29;20216;-79
2023/12/05 05:35:51;;;;;;;7.30;6.70;;;-5.10;99.90;;;;;;4931740;29;20209;-79
2023/12/05 05:38:18;;;;;;;8.77;8.10;;;-5.10;99.90;;;;;;4940066;29;20273;-80
2023/12/05 05:40:47;;;;;;;10.07;9.18;;;-5.20;99.90;;;;;;4931643;29;20256;-81
2023/12/05 05:43:15;;;;;;;9.40;7.07;;;-5.20;99.90;;;;;;4932042;29;20215;-78
2023/12/05 05:45:41;;;;;;;14.85;8.75;;;-5.30;99.90;;;;;;4935300;29;20268;-77
2023/12/05 05:48:10;;;;;;;5.75;5.35;;;-5.40;99.90;;;;;;4935554;29;20209;-79
2023/12/05 05:50:40;;;;;;;19.65;8.43;;;-5.40;99.90;;;;;;4932225;29;20201;-77
2023/12/05 05:53:07;;;;;;;5.38;5.15;;;-5.40;99.90;;;;;;4931191;29;20231;-78
2023/12/05 05:55:34;;;;;;;13.43;8.57;;;-5.50;99.90;;;;;;4947889;29;20199;-77
2023/12/05 05:58:02;;;;;;;11.23;10.20;;;-5.60;99.90;;;;;;4943695;29;20216;-76
2023/12/05 06:00:30;;;;;;;9.15;7.82;;;-5.50;99.90;;;;;;4938972;29;20245;-77
2023/12/05 06:02:57;;;;;;;11.10;10.02;;;-5.60;99.90;;;;;;4936486;29;20236;-77
2023/12/05 06:05:25;;;;;;;20.33;11.23;;;-5.60;99.90;;;;;;4936103;29;20209;-76
2023/12/05 06:07:52;;;;;;;8.15;7.57;;;-5.60;99.90;;;;;;4931273;29;20212;-76
2023/12/05 06:10:20;;;;;;;14.43;10.60;;;-5.70;99.90;;;;;;4925979;29;20256;-76
2023/12/05 06:12:47;;;;;;;17.17;6.35;;;-5.80;99.90;;;;;;4923932;29;20494;-78
2023/12/05 06:15:14;;;;;;;13.25;9.73;;;-5.70;99.90;;;;;;4920811;29;20240;-77
2023/12/05 06:17:43;;;;;;;10.80;6.93;;;-5.70;99.90;;;;;;4919546;29;20453;-78
2023/12/05 06:20:10;;;;;;;11.02;8.82;;;-5.60;99.90;;;;;;4926064;29;20215;-76
2023/12/05 06:22:39;;;;;;;9.63;5.45;;;-5.70;99.90;;;;;;4924308;29;20337;-78
2023/12/05 06:25:07;;;;;;;6.13;5.72;;;-5.80;99.90;;;;;;4920520;29;20401;-76
2023/12/05 06:27:34;;;;;;;10.65;8.90;;;-5.80;99.90;;;;;;4932928;29;20211;-77
2023/12/05 06:30:01;;;;;;;11.15;8.45;;;-5.70;99.90;;;;;;4921319;29;20215;-77
2023/12/05 06:32:42;;;;;;;7.15;6.70;;;-5.60;99.90;;;;;;4922337;29;20292;-78
2023/12/05 06:35:09;;;;;;;7.15;6.50;;;-5.70;99.90;;;;;;4932122;29;20227;-80
2023/12/05 06:37:36;;;;;;;9.02;7.07;;;-5.70;99.90;;;;;;4931235;29;20393;-78
2023/12/05 06:40:04;;;;;;;10.35;9.57;;;-5.70;99.90;;;;;;4922030;29;20468;-77
2023/12/05 06:42:31;;;;;;;5.70;5.13;;;-5.70;99.90;;;;;;4925280;29;20235;-76
2023/12/05 06:44:58;;;;;;;8.75;5.40;;;-5.60;99.90;;;;;;4922317;29;20209;-76
2023/12/05 06:47:25;;;;;;;7.22;6.45;;;-5.70;99.90;;;;;;4923613;29;20304;-77
2023/12/05 06:49:52;;;;;;;8.70;7.85;;;-5.70;99.90;;;;;;4922312;29;20217;-78
2023/12/05 06:52:23;;;;;;;5.60;5.10;;;-5.70;99.90;;;;;;4921611;29;20265;-77
2023/12/05 06:54:51;;;;;;;6.05;5.65;;;-5.50;99.90;;;;;;4927986;29;20236;-76
2023/12/05 06:57:19;;;;;;;8.15;7.45;;;-5.60;99.90;;;;;;4932710;29;20224;-79
2023/12/05 06:59:45;;;;;;;7.05;6.65;;;-5.50;99.90;;;;;;4924604;29;20256;-78
2023/12/05 07:02:13;;;;;;;16.88;9.07;;;-5.50;99.90;;;;;;4935124;29;20263;-78
2023/12/05 07:04:40;;;;;;;8.38;6.97;;;-5.50;99.90;;;;;;4930182;29;20268;-78
2023/12/05 07:07:07;;;;;;;6.82;6.32;;;-5.40;99.90;;;;;;4917898;29;20371;-77
2023/12/05 07:09:34;;;;;;;10.13;5.65;;;-5.40;99.90;;;;;;4931448;29;20216;-77
2023/12/05 07:12:01;;;;;;;4.75;4.53;;;-5.40;99.90;;;;;;4928949;29;20208;-77
2023/12/05 07:14:28;;;;;;;8.15;6.47;;;-5.30;99.90;;;;;;4921752;29;20284;-76
2023/12/05 07:16:56;;;;;;;7.82;7.10;;;-5.30;99.90;;;;;;4936371;29;20243;-78
2023/12/05 07:19:23;;;;;;;11.10;6.53;;;-5.20;99.90;;;;;;4925532;29;20218;-76
2023/12/05 07:21:50;;;;;;;16.85;8.65;;;-5.30;99.90;;;;;;4925683;29;20235;-80
2023/12/05 07:24:17;;;;;;;7.15;5.70;;;-5.20;99.90;;;;;;4930358;29;20235;-80
2023/12/05 07:26:46;;;;;;;12.10;11.02;;;-5.20;99.90;;;;;;4937997;29;20213;-79
2023/12/05 07:29:14;;;;;;;6.72;6.28;;;-5.10;99.90;;;;;;4931901;29;20269;-77
2023/12/05 07:31:42;;;;;;;11.15;7.53;;;-5.10;99.90;;;;;;4924624;29;20217;-79
2023/12/05 07:34:09;;;;;;;8.85;6.68;;;-5.00;99.90;;;;;;4930096;29;20231;-79
2023/12/05 07:36:41;;;;;;;8.82;8.05;;;-4.90;99.90;;;;;;4934632;29;20223;-78
2023/12/05 07:39:12;;;;;;;6.70;6.28;;;-4.90;99.90;;;;;;4934650;29;20244;-80
2023/12/05 07:41:40;;;;;;;8.48;7.38;;;-4.80;99.90;;;;;;4935765;29;20252;-76
2023/12/05 07:44:07;;;;;;;9.55;8.75;;;-4.70;99.90;;;;;;4932149;29;20201;-79
2023/12/05 07:46:34;;;;;;;6.13;5.72;;;-4.60;99.90;;;;;;4930968;29;20211;-78
2023/12/05 07:49:02;;;;;;;15.27;9.60;;;-4.60;99.90;;;;;;4933134;29;20209;-77
2023/12/05 07:51:29;;;;;;;9.75;8.95;;;-4.40;99.90;;;;;;4936584;29;20521;-79
2023/12/05 07:53:57;;;;;;;13.57;8.65;;;-4.30;99.90;;;;;;4927741;29;20397;-79
2023/12/05 07:56:24;;;;;;;11.30;8.30;;;-4.20;99.90;;;;;;4927247;29;20223;-80
2023/12/05 07:58:52;;;;;;;17.58;8.07;;;-4.10;99.90;;;;;;4926802;29;20225;-80
2023/12/05 08:01:19;;;;;;;9.10;8.25;;;-4.10;99.90;;;;;;4934988;29;20209;-81
2023/12/05 08:03:46;;;;;;;8.82;7.93;;;-3.90;99.90;;;;;;4930774;29;20294;-80
2023/12/05 08:06:15;;;;;;;8.88;7.85;;;-3.90;99.90;;;;;;4931253;29;20524;-78
2023/12/05 08:08:43;;;;;;;15.65;7.57;;;-3.70;99.90;;;;;;4924746;29;20260;-81
2023/12/05 08:11:11;;;;;;;12.50;7.70;;;-3.80;99.90;;;;;;4929071;29;20285;-80
2023/12/05 08:13:38;;;;;;;5.35;4.95;;;-3.80;99.90;;;;;;4939796;29;20224;-79
2023/12/05 08:16:06;;;;;;;14.85;9.38;;;-3.80;99.90;;;;;;4927226;29;20536;-78
2023/12/05 08:18:33;;;;;;;10.43;7.68;;;-3.90;99.90;;;;;;4919283;29;20531;-78
2023/12/05 08:21:00;;;;;;;8.60;7.90;;;-3.80;99.90;;;;;;4935173;29;20220;-81
2023/12/05 08:23:28;;;;;;;8.68;7.90;;;-3.60;99.90;;;;;;4924981;29;20268;-79
2023/12/05 08:25:55;;;;;;;6.07;5.47;;;-3.50;99.90;;;;;;4932954;29;20224;-85
2023/12/05 08:28:22;;;;;;;7.32;6.60;;;-3.60;99.90;;;;;;4939851;29;20300;-83
2023/12/05 08:30:50;;;;;;;6.65;5.78;;;-3.60;99.90;;;;;;4935789;29;20236;-81
2023/12/05 08:33:18;;;;;;;4.28;3.90;;;-3.70;99.90;;;;;;4926284;29;20211;-86
2023/12/05 08:35:45;;;;;;;8.73;5.55;;;-3.70;99.90;;;;;;4931939;29;20272;-86
2023/12/05 08:38:22;;;;;;;11.30;7.68;;;-3.70;99.90;;;;;;4922271;29;20283;-82
2023/12/05 08:40:50;;;;;;;6.38;4.30;;;-3.60;99.90;;;;;;4938089;29;20504;-85
2023/12/05 08:43:17;;;;;;;6.88;6.47;;;-3.60;99.90;;;;;;4943579;29;20299;-79
2023/12/05 08:45:45;;;;;;;8.82;6.38;;;-3.50;99.90;;;;;;4936142;29;20307;-83
2023/12/05 08:48:12;;;;;;;11.02;8.45;;;-3.40;99.90;;;;;;4930444;29;20208;-82
2023/12/05 08:50:41;;;;;;;9.55;7.38;;;-3.40;99.90;;;;;;4933138;29;20288;-83
2023/12/05 08:53:09;;;;;;;7.03;4.82;;;-3.30;99.90;;;;;;4937486;29;20289;-82
2023/12/05 08:55:36;;;;;;;7.10;6.50;;;-3.40;99.90;;;;;;4924303;29;20561;-83
2023/12/05 08:58:03;;;;;;;6.50;4.97;;;-3.30;99.90;;;;;;4937117;29;20300;-81
2023/12/05 09:00:30;;;;;;;8.30;7.40;;;-3.30;99.90;;;;;;4930663;29;20209;-83
2023/12/05 09:02:59;;;;;;;21.92;8.52;;;-3.30;99.90;;;;;;4934056;29;20229;-81
2023/12/05 09:05:26;;;;;;;9.18;8.30;;;-3.20;99.90;;;;;;4921021;29;20239;-83
2023/12/05 09:07:54;;;;;;;7.43;6.72;;;-3.20;99.90;;;;;;4929252;29;20426;-82
2023/12/05 09:10:21;;;;;;;11.75;6.47;;;-3.10;99.90;;;;;;4936884;29;20221;-79
2023/12/05 09:12:49;;;;;;;4.18;3.90;;;-3.00;99.90;;;;;;4926456;29;20215;-82
2023/12/05 09:15:16;;;;;;;6.85;6.40;;;-2.90;99.90;;;;;;4940298;29;20243;-84
2023/12/05 09:17:44;;;;;;;12.55;5.40;;;-2.80;99.90;;;;;;4937748;29;20445;-82
2023/12/05 09:20:12;;;;;;;8.60;7.72;;;-2.80;99.90;;;;;;4927597;29;20276;-83
2023/12/05 09:22:39;;;;;;;8.95;5.25;;;-2.70;99.90;;;;;;4931392;29;20260;-84
2023/12/05 09:25:07;;;;;;;6.85;6.35;;;-2.60;99.90;;;;;;4936247;29;20205;-83
2023/12/05 09:27:34;;;;;;;8.15;7.60;;;-2.50;99.90;;;;;;4935796;29;20255;-82
2023/12/05 09:30:01;;;;;;;5.40;5.00;;;-2.40;99.90;;;;;;4928655;29;20241;-80
2023/12/05 09:32:28;;;;;;;7.18;6.70;;;-2.40;99.90;;;;;;4926455;29;20224;-81
2023/12/05 09:34:58;;;;;;;8.70;6.53;;;-2.60;99.90;;;;;;4930172;29;20237;-83
2023/12/05 09:37:26;;;;;;;2.65;2.55;;;-2.50;99.90;;;;;;4926852;29;20315;-83
2023/12/05 09:39:53;;;;;;;7.60;6.57;;;-2.20;99.90;;;;;;4927830;29;20272;-84
2023/12/05 09:42:24;;;;;;;7.60;3.90;;;-2.10;99.90;;;;;;4916432;29;20285;-84
2023/12/05 09:44:52;;;;;;;4.85;4.60;;;-2.00;99.90;;;;;;4924296;29;20212;-78
2023/12/05 09:47:21;;;;;;;11.63;6.50;;;-2.00;99.90;;;;;;4922131;29;20276;-79
2023/12/05 09:49:48;;;;;;;6.18;5.80;;;-2.00;99.90;;;;;;4922369;29;20209;-79
2023/12/05 09:52:16;;;;;;;6.82;6.22;;;-1.80;99.90;;;;;;4923449;29;20243;-80
2023/12/05 09:54:44;;;;;;;2.80;2.70;;;-1.60;99.90;;;;;;4930542;29;20223;-77
2023/12/05 09:57:12;;;;;;;2.83;2.60;;;-1.80;99.90;;;;;;4927885;29;20264;-79
2023/12/05 09:59:40;;;;;;;6.38;5.88;;;-1.80;99.90;;;;;;4937845;29;20213;-78
2023/12/05 10:02:08;;;;;;;4.20;4.00;;;-1.60;99.90;;;;;;4927435;29;20229;-79
2023/12/05 10:04:45;;;;;;;4.95;4.50;;;-1.50;99.90;;;;;;4935493;29;20212;-79
2023/12/05 10:07:13;;;;;;;3.25;3.15;;;-1.30;99.90;;;;;;4946540;29;20200;-79
2023/12/05 10:09:42;;;;;;;6.15;5.85;;;-1.10;99.90;;;;;;4930075;29;20193;-78
2023/12/05 10:12:10;;;;;;;3.88;2.70;;;-1.20;99.90;;;;;;4936765;29;20209;-79
2023/12/05 10:14:38;;;;;;;5.22;4.72;;;-1.40;99.90;;;;;;4936110;29;20502;-80
2023/12/05 10:17:08;;;;;;;11.55;10.38;;;-1.30;99.90;;;;;;4933921;29;20216;-79
2023/12/05 10:19:35;;;;;;;7.00;6.57;;;-1.10;99.90;;;;;;4935078;29;20207;-78
2023/12/05 10:22:03;;;;;;;5.20;4.80;;;-1.00;99.90;;;;;;4922245;29;20300;-80
2023/12/05 10:24:45;;;;;;;13.40;9.57;;;-0.80;99.90;;;;;;4925562;29;20209;-79
2023/12/05 10:27:12;;;;;;;5.82;5.28;;;-0.70;99.90;;;;;;4923548;29;20196;-79
2023/12/05 10:29:42;;;;;;;7.07;6.47;;;-0.80;99.90;;;;;;4932817;29;20288;-79
2023/12/05 10:32:11;;;;;;;16.63;7.07;;;-0.70;99.90;;;;;;4921370;29;20205;-79
2023/12/05 10:34:47;;;;;;;4.10;3.90;;;-0.70;99.90;;;;;;4926598;29;20434;-78
2023/12/05 10:37:25;;;;;;;8.88;8.18;;;-0.70;99.90;;;;;;4928208;29;20205;-80
2023/12/05 10:39:54;;;;;;;5.45;5.15;;;-0.50;99.90;;;;;;4932641;29;20263;-78
2023/12/05 10:42:27;;;;;;;6.78;6.30;;;-0.50;99.90;;;;;;4932431;29;20237;-79
2023/12/05 10:44:55;;;;;;;9.27;7.45;;;-0.50;99.90;;;;;;4929377;29;20229;-84
2023/12/05 10:47:27;;;;;;;14.52;5.85;;;-0.60;99.90;;;;;;4923588;29;20213;-82
2023/12/05 10:49:55;;;;;;;10.02;3.83;;;-0.60;99.90;;;;;;4925242;29;20243;-82
2023/12/05 10:52:22;;;;;;;23.70;8.57;;;-0.40;99.90;;;;;;4930239;29;20238;-78
2023/12/05 10:54:58;;;;;;;10.45;8.65;;;-0.30;99.90;;;;;;4934457;29;20201;-80
2023/12/05 10:57:30;;;;;;;3.85;3.65;;;-0.30;99.90;;;;;;4939556;29;20211;-77
2023/12/05 10:59:58;;;;;;;5.63;5.20;;;-0.30;99.90;;;;;;4926849;29;20413;-82
2023/12/05 11:02:26;;;;;;;6.22;5.78;;;-0.30;99.90;;;;;;4925851;29;20224;-81
2023/12/05 11:04:54;;;;;;;3.83;3.53;;;-0.40;99.90;;;;;;4928400;29;20208;-84
2023/12/05 11:07:22;;;;;;;6.90;6.20;;;-0.40;99.90;;;;;;4929760;29;20213;-79
2023/12/05 11:09:51;;;;;;;4.57;4.15;;;-0.50;99.90;;;;;;4921395;29;20280;-82
2023/12/05 11:12:18;;;;;;;3.15;3.03;;;-0.50;99.90;;;;;;4921807;29;20521;-80
2023/12/05 11:14:47;;;;;;;4.57;4.30;;;-0.50;99.90;;;;;;4926870;29;20268;-79
2023/12/05 11:18:12;;;;;;;9.32;5.00;;;-0.60;99.90;;;;;;4927344;29;20220;-80
2023/12/05 11:21:45;;;;;;;6.38;5.88;;;-0.60;99.90;;;;;;4935265;29;20269;-80
2023/12/05 11:25:09;;;;;;;6.38;5.57;;;-0.60;99.90;;;;;;4942877;29;20302;-82
2023/12/05 11:28:58;;;;;;;4.30;3.90;;;-0.60;99.90;;;;;;4928123;29;20237;-83
2023/12/05 11:31:37;;;;;;;4.20;3.90;;;-0.60;99.90;;;;;;4931012;29;20238;-81
2023/12/05 11:37:46;;;;;;;4.57;4.25;;;-0.70;99.90;;;;;;4909166;29;20231;-79
2023/12/05 11:40:37;;;;;;;3.70;3.35;;;-0.70;99.90;;;;;;4941958;29;20272;-81
2023/12/05 11:43:19;;;;;;;5.55;5.20;;;-0.80;99.90;;;;;;4934441;29;20225;-81
2023/12/05 11:45:47;;;;;;;2.75;2.55;;;-0.80;99.90;;;;;;4934004;29;20293;-80
2023/12/05 11:48:22;;;;;;;7.18;6.68;;;-0.80;99.90;;;;;;4924140;29;20217;-78
2023/12/05 11:50:51;;;;;;;5.30;4.70;;;-0.80;99.90;;;;;;4929340;29;20200;-85
2023/12/05 11:53:19;;;;;;;3.95;3.80;;;-0.80;99.90;;;;;;4935682;29;20437;-80
2023/12/05 11:55:47;;;;;;;3.40;3.20;;;-0.80;99.90;;;;;;4942528;29;20277;-84
2023/12/05 11:58:34;;;;;;;4.47;4.15;;;-0.80;99.90;;;;;;4943833;29;20244;-80
2023/12/05 12:01:05;;;;;;;4.57;4.25;;;-0.70;99.90;;;;;;4945986;29;20236;-78
2023/12/05 12:03:52;;;;;;;5.63;5.28;;;-0.80;99.90;;;;;;4949163;29;20204;-80
2023/12/05 12:06:24;;;;;;;14.98;9.90;;;-0.80;99.90;;;;;;4934767;29;20231;-77
2023/12/05 12:08:58;;;;;;;4.13;3.83;;;-0.70;99.90;;;;;;4940551;29;20212;-82
2023/12/05 12:11:25;;;;;;;5.07;4.65;;;-0.90;99.90;;;;;;4933064;29;20212;-77
2023/12/05 12:13:52;;;;;;;6.45;5.70;;;-1.00;99.90;;;;;;4948379;29;20235;-82
2023/12/05 12:16:20;;;;;;;7.50;5.32;;;-0.90;99.90;;;;;;4933075;29;20236;-83
2023/12/05 12:18:48;;;;;;;3.67;3.38;;;-0.90;99.90;;;;;;4927503;29;20209;-80
2023/12/05 12:21:28;;;;;;;4.60;3.97;;;-0.90;99.90;;;;;;4926128;29;20386;-79
2023/12/05 12:23:58;;;;;;;4.63;4.30;;;-0.90;99.90;;;;;;4925660;29;20259;-79
2023/12/05 12:26:27;;;;;;;8.45;6.25;;;-0.80;99.90;;;;;;4925599;29;20525;-78
2023/12/05 12:28:55;;;;;;;2.42;2.22;;;-0.80;99.90;;;;;;4936718;29;20222;-78
2023/12/05 12:31:25;;;;;;;2.65;2.55;;;-0.60;99.90;;;;;;4929543;29;20220;-82
2023/12/05 12:33:53;;;;;;;5.47;4.97;;;-0.60;99.90;;;;;;4928604;29;20268;-81
2023/12/05 12:36:22;;;;;;;3.28;3.17;;;-0.50;99.90;;;;;;4931967;29;20225;-79
2023/12/05 12:38:49;;;;;;;3.88;3.63;;;-0.50;99.90;;;;;;4940038;29;20264;-77
2023/12/05 12:41:17;;;;;;;4.68;4.38;;;-0.70;99.90;;;;;;4928506;29;20233;-78
2023/12/05 12:44:02;;;;;;;6.13;5.63;;;-0.70;99.90;;;;;;4941061;29;20224;-82
2023/12/05 12:47:04;;;;;;;3.38;3.17;;;-0.70;99.90;;;;;;4938472;29;20177;-78
2023/12/05 12:49:43;;;;;;;4.75;4.40;;;-0.80;99.90;;;;;;4937632;29;20220;-78
2023/12/05 12:52:49;;;;;;;5.55;5.05;;;-1.00;99.90;;;;;;4920712;29;20228;-77
2023/12/05 12:55:37;;;;;;;11.15;7.15;;;-1.00;99.90;;;;;;4938936;29;20221;-80
2023/12/05 12:58:26;;;;;;;8.15;7.38;;;-1.00;99.90;;;;;;4936684;29;20241;-76
2023/12/05 13:00:55;;;;;;;3.47;2.88;;;-1.00;99.90;;;;;;4929173;29;20284;-81
2023/12/05 13:03:22;;;;;;;5.03;2.70;;;-1.00;99.90;;;;;;4924354;29;20251;-78